sensor_id;sensor_type;location;lat;lon;timestamp;P1;durP1;ratioP1;P2;durP2;ratioP2
18140;SDS011;9196;49.194;12.526;2023-12-20T00:00:34;5.93;;;5.15;;
18140;SDS011;9196;49.194;12.526;2023-12-20T00:03:02;5.05;;;4.45;;
18140;SDS011;9196;49.194;12.526;2023-12-20T00:05:29;4.93;;;4.40;;
18140;SDS011;9196;49.194;12.526;2023-12-20T00:07:57;4.93;;;4.53;;
18140;SDS011;9196;49.194;12.526;2023-12-20T00:10:23;5.22;;;4.80;;
18140;SDS011;9196;49.194;12.526;2023-12-20T00:12:50;5.22;;;4.75;;
18140;SDS011;9196;49.194;12.526;2023-12-20T00:15:18;5.78;;;4.95;;
18140;SDS011;9196;49.194;12.526;2023-12-20T00:17:45;4.22;;;3.92;;
18140;SDS011;9196;49.194;12.526;2023-12-20T00:20:12;5.05;;;4.55;;
18140;SDS011;9196;49.194;12.526;2023-12-20T00:22:39;4.70;;;4.30;;
18140;SDS011;9196;49.194;12.526;2023-12-20T00:25:06;4.93;;;4.40;;
18140;SDS011;9196;49.194;12.526;2023-12-20T00:27:33;4.65;;;4.07;;
18140;SDS011;9196;49.194;12.526;2023-12-20T00:30:00;4.57;;;4.25;;
18140;SDS011;9196;49.194;12.526;2023-12-20T00:32:28;4.75;;;3.95;;
18140;SDS011;9196;49.194;12.526;2023-12-20T00:34:55;5.15;;;4.65;;
18140;SDS011;9196;49.194;12.526;2023-12-20T00:37:21;5.82;;;4.45;;
18140;SDS011;9196;49.194;12.526;2023-12-20T00:39:49;5.60;;;4.88;;
18140;SDS011;9196;49.194;12.526;2023-12-20T00:42:15;4.85;;;4.45;;
18140;SDS011;9196;49.194;12.526;2023-12-20T00:44:42;5.93;;;5.05;;
18140;SDS011;9196;49.194;12.526;2023-12-20T00:47:09;5.88;;;5.30;;
18140;SDS011;9196;49.194;12.526;2023-12-20T00:49:37;5.57;;;4.85;;
18140;SDS011;9196;49.194;12.526;2023-12-20T00:52:04;5.10;;;4.60;;
18140;SDS011;9196;49.194;12.526;2023-12-20T00:54:31;5.50;;;5.10;;
18140;SDS011;9196;49.194;12.526;2023-12-20T00:56:59;5.00;;;4.60;;
18140;SDS011;9196;49.194;12.526;2023-12-20T00:59:25;6.40;;;5.05;;
18140;SDS011;9196;49.194;12.526;2023-12-20T01:01:52;5.93;;;5.00;;
18140;SDS011;9196;49.194;12.526;2023-12-20T01:04:19;6.60;;;5.30;;
18140;SDS011;9196;49.194;12.526;2023-12-20T01:06:47;8.82;;;5.25;;
18140;SDS011;9196;49.194;12.526;2023-12-20T01:09:14;5.72;;;5.15;;
18140;SDS011;9196;49.194;12.526;2023-12-20T01:11:41;4.57;;;4.18;;
18140;SDS011;9196;49.194;12.526;2023-12-20T01:14:08;5.25;;;4.75;;
18140;SDS011;9196;49.194;12.526;2023-12-20T01:16:33;5.63;;;4.70;;
18140;SDS011;9196;49.194;12.526;2023-12-20T01:19:00;6.38;;;4.95;;
18140;SDS011;9196;49.194;12.526;2023-12-20T01:21:27;7.82;;;4.85;;
18140;SDS011;9196;49.194;12.526;2023-12-20T01:23:55;8.55;;;6.28;;
18140;SDS011;9196;49.194;12.526;2023-12-20T01:26:22;7.63;;;6.18;;
18140;SDS011;9196;49.194;12.526;2023-12-20T01:28:49;7.05;;;5.50;;
18140;SDS011;9196;49.194;12.526;2023-12-20T01:31:15;6.93;;;5.47;;
18140;SDS011;9196;49.194;12.526;2023-12-20T01:33:42;11.52;;;6.07;;
18140;SDS011;9196;49.194;12.526;2023-12-20T01:36:09;6.05;;;5.45;;
18140;SDS011;9196;49.194;12.526;2023-12-20T01:38:36;6.88;;;6.20;;
18140;SDS011;9196;49.194;12.526;2023-12-20T01:41:04;6.28;;;5.78;;
18140;SDS011;9196;49.194;12.526;2023-12-20T01:43:31;6.70;;;6.10;;
18140;SDS011;9196;49.194;12.526;2023-12-20T01:45:58;5.63;;;5.18;;
18140;SDS011;9196;49.194;12.526;2023-12-20T01:48:25;7.82;;;6.20;;
18140;SDS011;9196;49.194;12.526;2023-12-20T01:50:52;6.60;;;6.00;;
18140;SDS011;9196;49.194;12.526;2023-12-20T01:53:20;6.68;;;5.93;;
18140;SDS011;9196;49.194;12.526;2023-12-20T01:55:49;7.97;;;6.53;;
18140;SDS011;9196;49.194;12.526;2023-12-20T01:58:19;6.05;;;5.55;;
18140;SDS011;9196;49.194;12.526;2023-12-20T02:00:47;7.38;;;6.30;;
18140;SDS011;9196;49.194;12.526;2023-12-20T02:03:14;6.57;;;5.63;;
18140;SDS011;9196;49.194;12.526;2023-12-20T02:05:42;7.38;;;6.05;;
18140;SDS011;9196;49.194;12.526;2023-12-20T02:08:11;6.78;;;6.07;;
18140;SDS011;9196;49.194;12.526;2023-12-20T02:10:38;6.47;;;5.88;;
18140;SDS011;9196;49.194;12.526;2023-12-20T02:13:05;6.63;;;6.00;;
18140;SDS011;9196;49.194;12.526;2023-12-20T02:15:34;7.15;;;6.45;;
18140;SDS011;9196;49.194;12.526;2023-12-20T02:18:02;6.53;;;5.93;;
18140;SDS011;9196;49.194;12.526;2023-12-20T02:20:29;6.57;;;5.95;;
18140;SDS011;9196;49.194;12.526;2023-12-20T02:22:57;7.18;;;6.53;;
18140;SDS011;9196;49.194;12.526;2023-12-20T02:25:24;8.05;;;6.75;;
18140;SDS011;9196;49.194;12.526;2023-12-20T02:27:51;6.65;;;5.95;;
18140;SDS011;9196;49.194;12.526;2023-12-20T02:30:18;8.13;;;7.28;;
18140;SDS011;9196;49.194;12.526;2023-12-20T02:32:45;8.40;;;7.57;;
18140;SDS011;9196;49.194;12.526;2023-12-20T02:35:12;7.85;;;6.85;;
18140;SDS011;9196;49.194;12.526;2023-12-20T02:37:38;7.57;;;6.57;;
18140;SDS011;9196;49.194;12.526;2023-12-20T02:40:07;8.65;;;6.95;;
18140;SDS011;9196;49.194;12.526;2023-12-20T02:42:34;11.65;;;9.65;;
18140;SDS011;9196;49.194;12.526;2023-12-20T02:45:01;10.20;;;8.60;;
18140;SDS011;9196;49.194;12.526;2023-12-20T02:47:27;11.70;;;8.43;;
18140;SDS011;9196;49.194;12.526;2023-12-20T02:49:54;11.32;;;8.68;;
18140;SDS011;9196;49.194;12.526;2023-12-20T02:52:21;10.88;;;8.45;;
18140;SDS011;9196;49.194;12.526;2023-12-20T02:54:49;7.65;;;6.88;;
18140;SDS011;9196;49.194;12.526;2023-12-20T02:57:17;10.20;;;8.48;;
18140;SDS011;9196;49.194;12.526;2023-12-20T02:59:44;8.98;;;8.10;;
18140;SDS011;9196;49.194;12.526;2023-12-20T03:02:10;10.30;;;8.73;;
18140;SDS011;9196;49.194;12.526;2023-12-20T03:04:37;11.15;;;8.15;;
18140;SDS011;9196;49.194;12.526;2023-12-20T03:07:04;10.18;;;8.75;;
18140;SDS011;9196;49.194;12.526;2023-12-20T03:09:30;8.32;;;7.35;;
18140;SDS011;9196;49.194;12.526;2023-12-20T03:11:57;8.77;;;7.80;;
18140;SDS011;9196;49.194;12.526;2023-12-20T03:14:25;9.65;;;8.10;;
18140;SDS011;9196;49.194;12.526;2023-12-20T03:16:52;8.25;;;7.45;;
18140;SDS011;9196;49.194;12.526;2023-12-20T03:19:19;7.93;;;6.75;;
18140;SDS011;9196;49.194;12.526;2023-12-20T03:21:46;12.90;;;6.22;;
18140;SDS011;9196;49.194;12.526;2023-12-20T03:24:12;7.28;;;6.57;;
18140;SDS011;9196;49.194;12.526;2023-12-20T03:26:39;12.73;;;7.47;;
18140;SDS011;9196;49.194;12.526;2023-12-20T03:29:06;8.90;;;7.90;;
18140;SDS011;9196;49.194;12.526;2023-12-20T03:31:34;8.48;;;7.50;;
18140;SDS011;9196;49.194;12.526;2023-12-20T03:34:01;7.53;;;6.38;;
18140;SDS011;9196;49.194;12.526;2023-12-20T03:36:28;7.55;;;6.75;;
18140;SDS011;9196;49.194;12.526;2023-12-20T03:38:54;7.80;;;7.00;;
18140;SDS011;9196;49.194;12.526;2023-12-20T03:41:21;7.63;;;6.93;;
18140;SDS011;9196;49.194;12.526;2023-12-20T03:43:48;7.63;;;6.47;;
18140;SDS011;9196;49.194;12.526;2023-12-20T03:46:14;7.85;;;7.05;;
18140;SDS011;9196;49.194;12.526;2023-12-20T03:48:43;8.05;;;7.25;;
18140;SDS011;9196;49.194;12.526;2023-12-20T03:51:09;6.55;;;5.95;;
18140;SDS011;9196;49.194;12.526;2023-12-20T03:53:36;6.63;;;6.03;;
18140;SDS011;9196;49.194;12.526;2023-12-20T03:56:05;6.53;;;5.93;;
18140;SDS011;9196;49.194;12.526;2023-12-20T03:58:32;8.48;;;6.38;;
18140;SDS011;9196;49.194;12.526;2023-12-20T04:00:59;6.68;;;6.07;;
18140;SDS011;9196;49.194;12.526;2023-12-20T04:03:26;7.35;;;5.72;;
18140;SDS011;9196;49.194;12.526;2023-12-20T04:05:54;5.35;;;4.90;;
18140;SDS011;9196;49.194;12.526;2023-12-20T04:08:21;5.80;;;5.30;;
18140;SDS011;9196;49.194;12.526;2023-12-20T04:10:48;6.55;;;5.93;;
18140;SDS011;9196;49.194;12.526;2023-12-20T04:13:15;6.22;;;5.60;;
18140;SDS011;9196;49.194;12.526;2023-12-20T04:15:42;5.13;;;4.25;;
18140;SDS011;9196;49.194;12.526;2023-12-20T04:18:09;5.38;;;4.90;;
18140;SDS011;9196;49.194;12.526;2023-12-20T04:20:35;5.30;;;4.80;;
18140;SDS011;9196;49.194;12.526;2023-12-20T04:23:04;5.18;;;4.80;;
18140;SDS011;9196;49.194;12.526;2023-12-20T04:25:30;5.70;;;5.30;;
18140;SDS011;9196;49.194;12.526;2023-12-20T04:27:57;5.40;;;4.97;;
18140;SDS011;9196;49.194;12.526;2023-12-20T04:30:24;5.35;;;4.95;;
18140;SDS011;9196;49.194;12.526;2023-12-20T04:32:51;5.68;;;4.38;;
18140;SDS011;9196;49.194;12.526;2023-12-20T04:35:18;5.15;;;4.68;;
18140;SDS011;9196;49.194;12.526;2023-12-20T04:37:44;4.53;;;4.22;;
18140;SDS011;9196;49.194;12.526;2023-12-20T04:40:14;4.85;;;4.32;;
18140;SDS011;9196;49.194;12.526;2023-12-20T04:42:41;4.13;;;3.83;;
18140;SDS011;9196;49.194;12.526;2023-12-20T04:45:08;5.00;;;4.60;;
18140;SDS011;9196;49.194;12.526;2023-12-20T04:47:38;4.45;;;4.15;;
18140;SDS011;9196;49.194;12.526;2023-12-20T04:50:05;4.65;;;4.20;;
18140;SDS011;9196;49.194;12.526;2023-12-20T04:52:33;4.07;;;3.80;;
18140;SDS011;9196;49.194;12.526;2023-12-20T04:55:00;4.50;;;4.20;;
18140;SDS011;9196;49.194;12.526;2023-12-20T04:57:28;4.45;;;4.15;;
18140;SDS011;9196;49.194;12.526;2023-12-20T04:59:55;4.22;;;3.95;;
18140;SDS011;9196;49.194;12.526;2023-12-20T05:02:22;4.18;;;3.88;;
18140;SDS011;9196;49.194;12.526;2023-12-20T05:04:49;3.85;;;3.55;;
18140;SDS011;9196;49.194;12.526;2023-12-20T05:07:16;4.90;;;4.43;;
18140;SDS011;9196;49.194;12.526;2023-12-20T05:09:43;4.40;;;4.00;;
18140;SDS011;9196;49.194;12.526;2023-12-20T05:12:10;4.00;;;3.70;;
18140;SDS011;9196;49.194;12.526;2023-12-20T05:14:39;3.85;;;3.60;;
18140;SDS011;9196;49.194;12.526;2023-12-20T05:17:06;3.83;;;3.55;;
18140;SDS011;9196;49.194;12.526;2023-12-20T05:19:33;6.72;;;3.40;;
18140;SDS011;9196;49.194;12.526;2023-12-20T05:22:00;4.20;;;3.90;;
18140;SDS011;9196;49.194;12.526;2023-12-20T05:24:28;3.92;;;3.67;;
18140;SDS011;9196;49.194;12.526;2023-12-20T05:26:55;4.03;;;3.72;;
18140;SDS011;9196;49.194;12.526;2023-12-20T05:29:22;3.95;;;3.65;;
18140;SDS011;9196;49.194;12.526;2023-12-20T05:31:50;5.05;;;4.55;;
18140;SDS011;9196;49.194;12.526;2023-12-20T05:34:17;4.45;;;4.05;;
18140;SDS011;9196;49.194;12.526;2023-12-20T05:36:45;5.72;;;3.15;;
18140;SDS011;9196;49.194;12.526;2023-12-20T05:39:11;4.63;;;4.32;;
18140;SDS011;9196;49.194;12.526;2023-12-20T05:41:38;4.20;;;3.90;;
18140;SDS011;9196;49.194;12.526;2023-12-20T05:44:05;3.92;;;3.63;;
18140;SDS011;9196;49.194;12.526;2023-12-20T05:46:32;3.45;;;3.25;;
18140;SDS011;9196;49.194;12.526;2023-12-20T05:49:00;3.17;;;2.88;;
18140;SDS011;9196;49.194;12.526;2023-12-20T05:51:27;3.72;;;2.05;;
18140;SDS011;9196;49.194;12.526;2023-12-20T05:53:54;3.20;;;2.95;;
18140;SDS011;9196;49.194;12.526;2023-12-20T05:56:21;2.88;;;2.67;;
18140;SDS011;9196;49.194;12.526;2023-12-20T05:58:48;2.40;;;2.30;;
18140;SDS011;9196;49.194;12.526;2023-12-20T06:01:15;2.30;;;2.20;;
18140;SDS011;9196;49.194;12.526;2023-12-20T06:03:42;2.60;;;2.40;;
18140;SDS011;9196;49.194;12.526;2023-12-20T06:06:13;3.75;;;2.42;;
18140;SDS011;9196;49.194;12.526;2023-12-20T06:08:40;2.75;;;2.55;;
18140;SDS011;9196;49.194;12.526;2023-12-20T06:11:08;1.88;;;1.88;;
18140;SDS011;9196;49.194;12.526;2023-12-20T06:13:35;2.40;;;2.20;;
18140;SDS011;9196;49.194;12.526;2023-12-20T06:16:02;2.17;;;2.00;;
18140;SDS011;9196;49.194;12.526;2023-12-20T06:18:31;2.53;;;2.33;;
18140;SDS011;9196;49.194;12.526;2023-12-20T06:21:04;2.33;;;2.10;;
18140;SDS011;9196;49.194;12.526;2023-12-20T06:23:41;5.50;;;2.80;;
18140;SDS011;9196;49.194;12.526;2023-12-20T06:26:08;3.25;;;3.05;;
18140;SDS011;9196;49.194;12.526;2023-12-20T06:28:35;2.83;;;2.63;;
18140;SDS011;9196;49.194;12.526;2023-12-20T06:31:02;2.40;;;2.30;;
18140;SDS011;9196;49.194;12.526;2023-12-20T06:33:29;2.03;;;1.98;;
18140;SDS011;9196;49.194;12.526;2023-12-20T06:35:56;2.63;;;2.53;;
18140;SDS011;9196;49.194;12.526;2023-12-20T06:38:22;2.40;;;2.30;;
18140;SDS011;9196;49.194;12.526;2023-12-20T06:40:50;2.72;;;2.63;;
18140;SDS011;9196;49.194;12.526;2023-12-20T06:43:17;2.40;;;2.30;;
18140;SDS011;9196;49.194;12.526;2023-12-20T06:45:44;2.13;;;2.03;;
18140;SDS011;9196;49.194;12.526;2023-12-20T06:48:11;2.20;;;2.10;;
18140;SDS011;9196;49.194;12.526;2023-12-20T06:50:38;2.08;;;1.98;;
18140;SDS011;9196;49.194;12.526;2023-12-20T06:53:05;2.42;;;2.33;;
18140;SDS011;9196;49.194;12.526;2023-12-20T06:55:33;2.67;;;2.58;;
18140;SDS011;9196;49.194;12.526;2023-12-20T06:58:01;2.40;;;2.30;;
18140;SDS011;9196;49.194;12.526;2023-12-20T07:00:29;3.58;;;3.28;;
18140;SDS011;9196;49.194;12.526;2023-12-20T07:02:56;2.35;;;2.20;;
18140;SDS011;9196;49.194;12.526;2023-12-20T07:05:22;2.60;;;2.40;;
18140;SDS011;9196;49.194;12.526;2023-12-20T07:07:49;2.70;;;2.50;;
18140;SDS011;9196;49.194;12.526;2023-12-20T07:10:16;2.33;;;2.22;;
18140;SDS011;9196;49.194;12.526;2023-12-20T07:12:43;3.33;;;3.03;;
18140;SDS011;9196;49.194;12.526;2023-12-20T07:15:11;2.70;;;2.50;;
18140;SDS011;9196;49.194;12.526;2023-12-20T07:17:38;1.80;;;1.80;;
18140;SDS011;9196;49.194;12.526;2023-12-20T07:20:05;1.80;;;1.70;;
18140;SDS011;9196;49.194;12.526;2023-12-20T07:22:35;1.70;;;1.70;;
18140;SDS011;9196;49.194;12.526;2023-12-20T07:25:02;1.85;;;1.85;;
18140;SDS011;9196;49.194;12.526;2023-12-20T07:27:29;1.95;;;1.95;;
18140;SDS011;9196;49.194;12.526;2023-12-20T07:29:56;1.60;;;1.50;;
18140;SDS011;9196;49.194;12.526;2023-12-20T07:32:24;1.50;;;1.50;;
18140;SDS011;9196;49.194;12.526;2023-12-20T07:34:52;1.50;;;1.50;;
18140;SDS011;9196;49.194;12.526;2023-12-20T07:37:19;1.75;;;1.65;;
18140;SDS011;9196;49.194;12.526;2023-12-20T07:39:46;1.70;;;1.70;;
18140;SDS011;9196;49.194;12.526;2023-12-20T07:42:13;1.63;;;1.63;;
18140;SDS011;9196;49.194;12.526;2023-12-20T07:44:40;1.83;;;1.83;;
18140;SDS011;9196;49.194;12.526;2023-12-20T07:47:07;1.60;;;1.60;;
18140;SDS011;9196;49.194;12.526;2023-12-20T07:49:35;1.77;;;1.77;;
18140;SDS011;9196;49.194;12.526;2023-12-20T07:52:01;1.90;;;1.80;;
18140;SDS011;9196;49.194;12.526;2023-12-20T07:54:28;1.33;;;1.33;;
18140;SDS011;9196;49.194;12.526;2023-12-20T07:56:55;1.55;;;1.55;;
18140;SDS011;9196;49.194;12.526;2023-12-20T07:59:22;1.25;;;1.25;;
18140;SDS011;9196;49.194;12.526;2023-12-20T08:01:49;1.60;;;1.60;;
18140;SDS011;9196;49.194;12.526;2023-12-20T08:04:16;1.77;;;1.35;;
18140;SDS011;9196;49.194;12.526;2023-12-20T08:06:44;1.45;;;1.35;;
18140;SDS011;9196;49.194;12.526;2023-12-20T08:09:11;1.30;;;1.30;;
18140;SDS011;9196;49.194;12.526;2023-12-20T08:11:38;1.40;;;1.40;;
18140;SDS011;9196;49.194;12.526;2023-12-20T08:14:04;1.70;;;1.70;;
18140;SDS011;9196;49.194;12.526;2023-12-20T08:16:31;1.30;;;1.30;;
18140;SDS011;9196;49.194;12.526;2023-12-20T08:18:58;1.50;;;1.40;;
18140;SDS011;9196;49.194;12.526;2023-12-20T08:21:24;1.25;;;1.20;;
18140;SDS011;9196;49.194;12.526;2023-12-20T08:23:53;1.38;;;1.27;;
18140;SDS011;9196;49.194;12.526;2023-12-20T08:26:19;1.23;;;1.23;;
18140;SDS011;9196;49.194;12.526;2023-12-20T08:28:47;1.10;;;1.10;;
18140;SDS011;9196;49.194;12.526;2023-12-20T08:31:14;3.00;;;1.40;;
18140;SDS011;9196;49.194;12.526;2023-12-20T08:33:43;1.30;;;1.20;;
18140;SDS011;9196;49.194;12.526;2023-12-20T08:36:11;1.17;;;1.17;;
18140;SDS011;9196;49.194;12.526;2023-12-20T08:38:37;1.25;;;1.25;;
18140;SDS011;9196;49.194;12.526;2023-12-20T08:41:06;1.50;;;1.50;;
18140;SDS011;9196;49.194;12.526;2023-12-20T08:43:33;1.77;;;1.55;;
18140;SDS011;9196;49.194;12.526;2023-12-20T08:46:00;1.50;;;1.50;;
18140;SDS011;9196;49.194;12.526;2023-12-20T08:48:27;1.55;;;1.55;;
18140;SDS011;9196;49.194;12.526;2023-12-20T08:50:53;1.70;;;1.40;;
18140;SDS011;9196;49.194;12.526;2023-12-20T08:53:20;5.95;;;1.70;;
18140;SDS011;9196;49.194;12.526;2023-12-20T08:55:47;2.50;;;1.67;;
18140;SDS011;9196;49.194;12.526;2023-12-20T08:58:15;1.10;;;1.10;;
18140;SDS011;9196;49.194;12.526;2023-12-20T09:00:42;2.72;;;2.53;;
18140;SDS011;9196;49.194;12.526;2023-12-20T09:03:09;1.42;;;1.42;;
18140;SDS011;9196;49.194;12.526;2023-12-20T09:05:36;1.40;;;1.40;;
18140;SDS011;9196;49.194;12.526;2023-12-20T09:08:02;1.58;;;1.58;;
18140;SDS011;9196;49.194;12.526;2023-12-20T09:10:30;1.98;;;1.88;;
18140;SDS011;9196;49.194;12.526;2023-12-20T09:12:56;1.50;;;1.50;;
18140;SDS011;9196;49.194;12.526;2023-12-20T09:15:25;2.05;;;1.95;;
18140;SDS011;9196;49.194;12.526;2023-12-20T09:17:52;1.77;;;1.70;;
18140;SDS011;9196;49.194;12.526;2023-12-20T09:20:19;2.80;;;2.60;;
18140;SDS011;9196;49.194;12.526;2023-12-20T09:22:46;2.03;;;1.92;;
18140;SDS011;9196;49.194;12.526;2023-12-20T09:25:13;1.40;;;1.40;;
18140;SDS011;9196;49.194;12.526;2023-12-20T09:27:40;1.77;;;1.67;;
18140;SDS011;9196;49.194;12.526;2023-12-20T09:30:07;1.58;;;1.58;;
18140;SDS011;9196;49.194;12.526;2023-12-20T09:32:36;4.13;;;2.35;;
18140;SDS011;9196;49.194;12.526;2023-12-20T09:35:03;2.40;;;2.30;;
18140;SDS011;9196;49.194;12.526;2023-12-20T09:37:31;2.10;;;2.10;;
18140;SDS011;9196;49.194;12.526;2023-12-20T09:39:58;2.47;;;2.28;;
18140;SDS011;9196;49.194;12.526;2023-12-20T09:42:28;1.85;;;1.85;;
18140;SDS011;9196;49.194;12.526;2023-12-20T09:45:04;2.38;;;2.28;;
18140;SDS011;9196;49.194;12.526;2023-12-20T09:47:36;3.90;;;2.20;;
18140;SDS011;9196;49.194;12.526;2023-12-20T09:50:03;1.83;;;1.83;;
18140;SDS011;9196;49.194;12.526;2023-12-20T09:52:31;2.50;;;2.40;;
18140;SDS011;9196;49.194;12.526;2023-12-20T09:55:00;2.45;;;2.35;;
18140;SDS011;9196;49.194;12.526;2023-12-20T09:57:30;2.72;;;2.47;;
18140;SDS011;9196;49.194;12.526;2023-12-20T09:59:57;2.03;;;1.92;;
18140;SDS011;9196;49.194;12.526;2023-12-20T10:02:25;1.90;;;1.80;;
18140;SDS011;9196;49.194;12.526;2023-12-20T10:04:54;1.92;;;1.92;;
18140;SDS011;9196;49.194;12.526;2023-12-20T10:07:21;2.10;;;2.10;;
18140;SDS011;9196;49.194;12.526;2023-12-20T10:09:48;2.03;;;1.92;;
18140;SDS011;9196;49.194;12.526;2023-12-20T10:12:17;1.60;;;1.60;;
18140;SDS011;9196;49.194;12.526;2023-12-20T10:14:43;1.55;;;1.50;;
18140;SDS011;9196;49.194;12.526;2023-12-20T10:17:10;1.60;;;1.60;;
18140;SDS011;9196;49.194;12.526;2023-12-20T10:19:37;1.80;;;1.70;;
18140;SDS011;9196;49.194;12.526;2023-12-20T10:22:05;2.20;;;2.10;;
18140;SDS011;9196;49.194;12.526;2023-12-20T10:24:32;1.98;;;1.88;;
18140;SDS011;9196;49.194;12.526;2023-12-20T10:27:02;1.75;;;1.70;;
18140;SDS011;9196;49.194;12.526;2023-12-20T10:29:31;1.60;;;1.60;;
18140;SDS011;9196;49.194;12.526;2023-12-20T10:31:59;1.50;;;1.50;;
18140;SDS011;9196;49.194;12.526;2023-12-20T10:34:26;1.67;;;1.60;;
18140;SDS011;9196;49.194;12.526;2023-12-20T10:36:53;1.90;;;1.80;;
18140;SDS011;9196;49.194;12.526;2023-12-20T10:39:21;2.03;;;1.92;;
18140;SDS011;9196;49.194;12.526;2023-12-20T10:41:49;1.75;;;1.67;;
18140;SDS011;9196;49.194;12.526;2023-12-20T10:44:15;2.10;;;2.00;;
18140;SDS011;9196;49.194;12.526;2023-12-20T10:46:43;2.20;;;2.10;;
18140;SDS011;9196;49.194;12.526;2023-12-20T10:49:16;1.85;;;1.75;;
18140;SDS011;9196;49.194;12.526;2023-12-20T10:51:45;2.28;;;2.17;;
18140;SDS011;9196;49.194;12.526;2023-12-20T10:54:13;1.88;;;1.77;;
18140;SDS011;9196;49.194;12.526;2023-12-20T10:56:42;1.30;;;1.30;;
18140;SDS011;9196;49.194;12.526;2023-12-20T10:59:10;2.28;;;2.05;;
18140;SDS011;9196;49.194;12.526;2023-12-20T11:01:38;2.17;;;2.08;;
18140;SDS011;9196;49.194;12.526;2023-12-20T11:04:08;2.03;;;1.95;;
18140;SDS011;9196;49.194;12.526;2023-12-20T11:06:43;2.28;;;2.17;;
18140;SDS011;9196;49.194;12.526;2023-12-20T11:09:17;2.28;;;2.17;;
18140;SDS011;9196;49.194;12.526;2023-12-20T11:11:56;1.85;;;1.75;;
18140;SDS011;9196;49.194;12.526;2023-12-20T11:14:27;1.58;;;1.58;;
18140;SDS011;9196;49.194;12.526;2023-12-20T11:17:05;3.30;;;2.13;;
18140;SDS011;9196;49.194;12.526;2023-12-20T11:19:33;2.10;;;2.00;;
18140;SDS011;9196;49.194;12.526;2023-12-20T11:22:03;3.08;;;1.75;;
18140;SDS011;9196;49.194;12.526;2023-12-20T11:24:30;2.03;;;1.92;;
18140;SDS011;9196;49.194;12.526;2023-12-20T11:27:00;2.28;;;2.08;;
18140;SDS011;9196;49.194;12.526;2023-12-20T11:29:31;1.95;;;1.85;;
18140;SDS011;9196;49.194;12.526;2023-12-20T11:31:59;1.77;;;1.67;;
18140;SDS011;9196;49.194;12.526;2023-12-20T11:34:27;1.55;;;1.45;;
18140;SDS011;9196;49.194;12.526;2023-12-20T11:36:58;1.60;;;1.60;;
18140;SDS011;9196;49.194;12.526;2023-12-20T11:39:25;3.08;;;1.60;;
18140;SDS011;9196;49.194;12.526;2023-12-20T11:41:54;2.20;;;2.10;;
18140;SDS011;9196;49.194;12.526;2023-12-20T11:44:23;1.63;;;1.52;;
18140;SDS011;9196;49.194;12.526;2023-12-20T11:46:51;1.30;;;1.30;;
18140;SDS011;9196;49.194;12.526;2023-12-20T11:49:19;1.55;;;1.42;;
18140;SDS011;9196;49.194;12.526;2023-12-20T11:51:49;1.70;;;1.40;;
18140;SDS011;9196;49.194;12.526;2023-12-20T11:54:16;2.55;;;1.85;;
18140;SDS011;9196;49.194;12.526;2023-12-20T11:56:43;2.17;;;2.08;;
18140;SDS011;9196;49.194;12.526;2023-12-20T11:59:10;1.80;;;1.70;;
18140;SDS011;9196;49.194;12.526;2023-12-20T12:01:38;3.85;;;1.75;;
18140;SDS011;9196;49.194;12.526;2023-12-20T12:04:05;3.70;;;2.65;;
18140;SDS011;9196;49.194;12.526;2023-12-20T12:06:32;1.70;;;1.60;;
18140;SDS011;9196;49.194;12.526;2023-12-20T12:08:59;3.42;;;2.03;;
18140;SDS011;9196;49.194;12.526;2023-12-20T12:11:27;3.33;;;2.70;;
18140;SDS011;9196;49.194;12.526;2023-12-20T12:13:54;2.80;;;1.60;;
18140;SDS011;9196;49.194;12.526;2023-12-20T12:16:21;1.88;;;1.63;;
18140;SDS011;9196;49.194;12.526;2023-12-20T12:18:55;2.35;;;1.45;;
18140;SDS011;9196;49.194;12.526;2023-12-20T12:21:23;2.00;;;1.80;;
18140;SDS011;9196;49.194;12.526;2023-12-20T12:23:49;1.67;;;1.58;;
18140;SDS011;9196;49.194;12.526;2023-12-20T12:26:16;3.45;;;1.67;;
18140;SDS011;9196;49.194;12.526;2023-12-20T12:28:43;2.17;;;1.50;;
18140;SDS011;9196;49.194;12.526;2023-12-20T12:31:13;3.72;;;1.60;;
18140;SDS011;9196;49.194;12.526;2023-12-20T12:33:41;2.85;;;2.00;;
18140;SDS011;9196;49.194;12.526;2023-12-20T12:36:10;3.53;;;1.55;;
18140;SDS011;9196;49.194;12.526;2023-12-20T12:38:36;2.22;;;1.70;;
18140;SDS011;9196;49.194;12.526;2023-12-20T12:41:04;3.40;;;1.45;;
18140;SDS011;9196;49.194;12.526;2023-12-20T12:43:31;2.72;;;1.38;;
18140;SDS011;9196;49.194;12.526;2023-12-20T12:45:58;2.83;;;1.40;;
18140;SDS011;9196;49.194;12.526;2023-12-20T12:48:25;1.58;;;1.30;;
18140;SDS011;9196;49.194;12.526;2023-12-20T12:50:53;4.78;;;1.75;;
18140;SDS011;9196;49.194;12.526;2023-12-20T12:53:25;1.90;;;1.50;;
18140;SDS011;9196;49.194;12.526;2023-12-20T12:55:52;4.20;;;1.17;;
18140;SDS011;9196;49.194;12.526;2023-12-20T12:58:20;1.88;;;1.60;;
18140;SDS011;9196;49.194;12.526;2023-12-20T13:00:47;2.78;;;1.50;;
18140;SDS011;9196;49.194;12.526;2023-12-20T13:03:15;1.40;;;1.40;;
18140;SDS011;9196;49.194;12.526;2023-12-20T13:05:52;2.45;;;1.70;;
18140;SDS011;9196;49.194;12.526;2023-12-20T13:08:20;4.45;;;1.90;;
18140;SDS011;9196;49.194;12.526;2023-12-20T13:13:39;2.42;;;1.73;;
18140;SDS011;9196;49.194;12.526;2023-12-20T13:16:06;2.33;;;1.40;;
18140;SDS011;9196;49.194;12.526;2023-12-20T13:18:34;2.58;;;2.30;;
18140;SDS011;9196;49.194;12.526;2023-12-20T13:21:01;4.80;;;1.65;;
18140;SDS011;9196;49.194;12.526;2023-12-20T13:23:28;2.50;;;2.20;;
18140;SDS011;9196;49.194;12.526;2023-12-20T13:25:56;6.55;;;1.90;;
18140;SDS011;9196;49.194;12.526;2023-12-20T13:28:25;3.28;;;2.10;;
18140;SDS011;9196;49.194;12.526;2023-12-20T13:30:52;2.65;;;2.35;;
18140;SDS011;9196;49.194;12.526;2023-12-20T13:33:19;2.15;;;1.70;;
18140;SDS011;9196;49.194;12.526;2023-12-20T13:35:46;3.88;;;1.65;;
18140;SDS011;9196;49.194;12.526;2023-12-20T13:38:13;3.70;;;1.83;;
18140;SDS011;9196;49.194;12.526;2023-12-20T13:40:40;3.10;;;1.85;;
18140;SDS011;9196;49.194;12.526;2023-12-20T13:43:07;2.72;;;1.90;;
18140;SDS011;9196;49.194;12.526;2023-12-20T13:45:37;4.05;;;1.88;;
18140;SDS011;9196;49.194;12.526;2023-12-20T13:48:04;1.80;;;1.67;;
18140;SDS011;9196;49.194;12.526;2023-12-20T13:50:31;2.00;;;1.90;;
18140;SDS011;9196;49.194;12.526;2023-12-20T13:52:58;3.85;;;2.72;;
18140;SDS011;9196;49.194;12.526;2023-12-20T13:55:25;3.47;;;3.15;;
18140;SDS011;9196;49.194;12.526;2023-12-20T13:57:52;3.55;;;3.35;;
18140;SDS011;9196;49.194;12.526;2023-12-20T14:00:19;10.38;;;3.67;;
18140;SDS011;9196;49.194;12.526;2023-12-20T14:02:47;3.08;;;2.85;;
18140;SDS011;9196;49.194;12.526;2023-12-20T14:05:15;4.50;;;2.83;;
18140;SDS011;9196;49.194;12.526;2023-12-20T14:07:42;5.70;;;3.50;;
18140;SDS011;9196;49.194;12.526;2023-12-20T14:10:10;2.58;;;2.38;;
18140;SDS011;9196;49.194;12.526;2023-12-20T14:12:37;4.63;;;2.08;;
18140;SDS011;9196;49.194;12.526;2023-12-20T14:15:05;2.75;;;2.00;;
18140;SDS011;9196;49.194;12.526;2023-12-20T14:17:35;3.88;;;1.80;;
18140;SDS011;9196;49.194;12.526;2023-12-20T14:20:04;1.65;;;1.65;;
18140;SDS011;9196;49.194;12.526;2023-12-20T14:22:32;1.77;;;1.67;;
18140;SDS011;9196;49.194;12.526;2023-12-20T14:24:59;2.35;;;1.50;;
18140;SDS011;9196;49.194;12.526;2023-12-20T14:27:26;2.55;;;1.85;;
18140;SDS011;9196;49.194;12.526;2023-12-20T14:29:53;10.85;;;1.90;;
18140;SDS011;9196;49.194;12.526;2023-12-20T14:32:20;3.35;;;1.50;;
18140;SDS011;9196;49.194;12.526;2023-12-20T14:34:47;2.33;;;1.88;;
18140;SDS011;9196;49.194;12.526;2023-12-20T14:37:15;2.47;;;1.85;;
18140;SDS011;9196;49.194;12.526;2023-12-20T14:39:42;2.50;;;1.70;;
18140;SDS011;9196;49.194;12.526;2023-12-20T14:42:09;2.38;;;1.40;;
18140;SDS011;9196;49.194;12.526;2023-12-20T14:44:38;6.80;;;2.05;;
18140;SDS011;9196;49.194;12.526;2023-12-20T14:47:05;1.80;;;1.70;;
18140;SDS011;9196;49.194;12.526;2023-12-20T14:49:32;2.45;;;1.80;;
18140;SDS011;9196;49.194;12.526;2023-12-20T14:51:59;3.67;;;2.33;;